createdAt,value
2023-07-19T00:02:14.439Z,19.20
2023-07-19T00:04:42.625Z,19.10
2023-07-19T00:07:13.202Z,19.10
2023-07-19T00:09:41.290Z,19.00
2023-07-19T00:12:10.089Z,19.00
2023-07-19T00:14:38.331Z,19.00
2023-07-19T00:17:06.627Z,18.90
2023-07-19T00:19:34.714Z,18.90
2023-07-19T00:22:03.077Z,18.90
2023-07-19T00:24:32.572Z,18.90
2023-07-19T00:27:00.625Z,18.90
2023-07-19T00:29:28.732Z,18.90
2023-07-19T00:31:56.850Z,18.80
2023-07-19T00:34:24.988Z,18.80
2023-07-19T00:36:53.054Z,19.00
2023-07-19T00:39:21.140Z,18.90
2023-07-19T00:41:50.676Z,18.90
2023-07-19T00:44:18.980Z,18.80
2023-07-19T00:46:47.707Z,18.90
2023-07-19T00:49:16.233Z,18.90
2023-07-19T00:51:45.080Z,18.60
2023-07-19T00:54:13.338Z,18.60
2023-07-19T00:56:44.935Z,18.60
2023-07-19T00:59:15.771Z,18.60
2023-07-19T01:01:45.756Z,18.50
2023-07-19T01:04:14.572Z,18.40
2023-07-19T01:06:44.646Z,18.70
2023-07-19T01:09:13.246Z,18.40
2023-07-19T01:11:42.370Z,18.30
2023-07-19T01:14:10.556Z,18.20
2023-07-19T01:16:40.362Z,18.30
2023-07-19T01:19:10.751Z,18.10
2023-07-19T01:21:38.885Z,18.20
2023-07-19T01:24:09.047Z,18.20
2023-07-19T01:26:37.636Z,18.20
2023-07-19T01:29:05.899Z,18.20
2023-07-19T01:31:34.179Z,18.10
2023-07-19T01:34:02.828Z,18.10
2023-07-19T01:36:31.132Z,18.00
2023-07-19T01:38:59.443Z,18.10
2023-07-19T01:41:29.063Z,18.00
2023-07-19T01:43:57.692Z,18.10
2023-07-19T01:46:25.875Z,18.00
2023-07-19T01:48:54.424Z,18.10
2023-07-19T01:51:22.781Z,18.10
2023-07-19T01:53:51.155Z,18.40
2023-07-19T01:56:19.616Z,18.20
2023-07-19T01:58:49.214Z,18.30
2023-07-19T02:01:18.124Z,18.20
2023-07-19T02:03:46.400Z,18.10
2023-07-19T02:06:14.897Z,18.10
2023-07-19T02:08:43.214Z,18.10
2023-07-19T02:11:14.952Z,18.10
2023-07-19T02:13:43.477Z,18.00
2023-07-19T02:16:13.515Z,18.00
2023-07-19T02:18:42.120Z,17.90
2023-07-19T02:21:10.327Z,17.80
2023-07-19T02:23:38.600Z,17.80
2023-07-19T02:26:06.765Z,17.80
2023-07-19T02:28:35.011Z,17.80
2023-07-19T02:31:04.581Z,17.90
2023-07-19T02:33:34.416Z,18.00
2023-07-19T02:36:02.802Z,18.00
2023-07-19T02:38:31.059Z,18.20
2023-07-19T02:41:03.905Z,18.00
2023-07-19T02:43:32.422Z,18.00
2023-07-19T02:46:00.698Z,18.10
2023-07-19T02:48:28.859Z,18.00
2023-07-19T02:50:59.656Z,17.90
2023-07-19T02:53:28.029Z,17.90
2023-07-19T02:55:56.132Z,17.90
2023-07-19T02:58:24.318Z,17.90
2023-07-19T03:00:55.537Z,18.00
2023-07-19T03:03:24.128Z,18.00
2023-07-19T03:05:52.239Z,18.00
2023-07-19T03:08:21.773Z,18.10
2023-07-19T03:10:54.764Z,18.00
2023-07-19T03:13:22.980Z,17.90
2023-07-19T03:15:51.336Z,17.70
2023-07-19T03:18:19.443Z,17.70
2023-07-19T03:20:47.559Z,17.60
2023-07-19T03:23:15.673Z,17.60
2023-07-19T03:25:45.820Z,17.70
2023-07-19T03:28:13.929Z,17.60
2023-07-19T03:30:42.092Z,17.60
2023-07-19T03:33:10.288Z,17.50
2023-07-19T03:35:38.444Z,17.50
2023-07-19T03:38:06.598Z,17.50
2023-07-19T03:40:34.712Z,17.60
2023-07-19T03:43:04.193Z,17.70
2023-07-19T03:45:32.294Z,17.60
2023-07-19T03:48:00.355Z,17.60
2023-07-19T03:50:28.630Z,17.90
2023-07-19T03:52:56.703Z,17.80
2023-07-19T03:55:25.021Z,17.80
2023-07-19T03:57:53.158Z,17.90
2023-07-19T04:00:23.095Z,18.00
2023-07-19T04:02:51.710Z,18.00
2023-07-19T04:05:19.951Z,18.00
2023-07-19T04:07:48.469Z,18.00
2023-07-19T04:10:16.628Z,18.00
2023-07-19T04:12:44.792Z,18.00
2023-07-19T04:15:12.977Z,17.90
2023-07-19T04:17:42.697Z,17.80
2023-07-19T04:20:12.196Z,17.80
2023-07-19T04:22:40.402Z,17.70
2023-07-19T04:25:09.719Z,17.60
2023-07-19T04:27:37.936Z,17.50
2023-07-19T04:30:07.289Z,17.60
2023-07-19T04:32:35.507Z,17.70
2023-07-19T04:35:05.580Z,17.70
2023-07-19T04:37:33.848Z,17.80
2023-07-19T04:40:02.650Z,17.80
2023-07-19T04:42:30.805Z,17.80
2023-07-19T04:44:58.995Z,17.90
2023-07-19T04:47:27.199Z,17.80
2023-07-19T04:49:55.341Z,17.90
2023-07-19T04:52:24.877Z,17.80
2023-07-19T04:54:53.178Z,17.90
2023-07-19T04:57:21.227Z,17.90
2023-07-19T04:59:49.396Z,18.00
2023-07-19T05:02:18.027Z,18.10
2023-07-19T05:04:46.223Z,18.20
2023-07-19T05:07:16.068Z,18.20
2023-07-19T05:09:45.680Z,18.30
2023-07-19T05:12:13.767Z,18.50
2023-07-19T05:14:41.976Z,18.70
2023-07-19T05:17:10.207Z,18.50
2023-07-19T05:19:38.237Z,18.80
2023-07-19T05:22:06.811Z,18.70
2023-07-19T05:24:35.198Z,18.80
2023-07-19T05:27:04.927Z,19.00
2023-07-19T05:29:33.007Z,19.10
2023-07-19T05:32:01.117Z,19.30
2023-07-19T05:34:29.623Z,19.60
2023-07-19T05:36:58.481Z,19.70
2023-07-19T05:39:26.868Z,19.90
2023-07-19T05:41:54.820Z,20.00
2023-07-19T05:44:24.230Z,20.20
2023-07-19T05:46:53.607Z,20.30
2023-07-19T05:49:21.770Z,20.40
2023-07-19T05:51:49.748Z,20.50
2023-07-19T05:54:17.754Z,20.70
2023-07-19T05:56:46.089Z,20.60
2023-07-19T05:59:14.610Z,20.60
2023-07-19T06:01:44.527Z,20.60
2023-07-19T06:04:12.864Z,20.70
2023-07-19T06:06:40.923Z,20.70
2023-07-19T06:09:09.774Z,21.00
2023-07-19T06:11:37.826Z,21.20
2023-07-19T06:14:05.874Z,21.50
2023-07-19T06:16:33.948Z,21.70
2023-07-19T06:19:03.905Z,22.30
2023-07-19T06:21:32.903Z,22.40
2023-07-19T06:24:02.491Z,22.50
2023-07-19T06:26:30.667Z,22.70
2023-07-19T06:28:58.849Z,23.00
2023-07-19T06:31:26.899Z,23.20
2023-07-19T06:33:55.006Z,23.50
2023-07-19T06:36:25.226Z,23.70
2023-07-19T06:38:53.189Z,23.70
2023-07-19T06:41:21.700Z,23.80
2023-07-19T06:43:50.190Z,24.10
2023-07-19T06:46:18.233Z,24.20
2023-07-19T06:48:46.285Z,23.80
2023-07-19T06:51:14.733Z,23.70
2023-07-19T06:53:44.087Z,23.80
2023-07-19T06:56:12.136Z,23.80
2023-07-19T06:58:40.505Z,23.80
2023-07-19T07:01:08.666Z,24.20
2023-07-19T07:03:37.194Z,24.30
2023-07-19T07:06:05.565Z,24.50
2023-07-19T07:08:34.689Z,24.40
2023-07-19T07:11:05.437Z,24.40
2023-07-19T07:13:33.776Z,24.40
2023-07-19T07:16:01.816Z,24.20
2023-07-19T07:18:29.976Z,24.30
2023-07-19T07:20:58.382Z,24.40
2023-07-19T07:23:26.613Z,24.60
2023-07-19T07:25:54.817Z,24.60
2023-07-19T07:28:24.563Z,24.80
2023-07-19T07:30:52.659Z,24.90
2023-07-19T07:33:21.321Z,25.10
2023-07-19T07:35:49.264Z,25.30
2023-07-19T07:38:17.292Z,25.40
2023-07-19T07:40:45.367Z,25.40
2023-07-19T07:43:13.596Z,25.70
2023-07-19T07:45:43.065Z,25.60
2023-07-19T07:48:11.374Z,25.60
2023-07-19T07:50:39.464Z,25.70
2023-07-19T07:53:13.021Z,25.60
2023-07-19T07:55:43.101Z,25.60
2023-07-19T07:58:11.742Z,25.70
2023-07-19T08:00:40.271Z,25.80
2023-07-19T08:03:10.159Z,25.80
2023-07-19T08:05:39.099Z,25.90
2023-07-19T08:08:07.655Z,25.80
2023-07-19T08:10:38.096Z,25.80
2023-07-19T08:13:06.580Z,26.00
2023-07-19T08:15:34.955Z,26.20
2023-07-19T08:18:03.146Z,26.50
2023-07-19T08:20:32.756Z,26.60
2023-07-19T08:23:03.302Z,26.60
2023-07-19T08:25:31.766Z,26.80
2023-07-19T08:27:59.912Z,26.90
2023-07-19T08:30:29.854Z,26.80
2023-07-19T08:33:00.364Z,26.90
2023-07-19T08:35:28.497Z,26.90
2023-07-19T08:37:57.864Z,27.30
2023-07-19T08:40:26.676Z,27.40
2023-07-19T08:42:54.654Z,27.30
2023-07-19T08:45:26.089Z,27.30
2023-07-19T08:47:54.218Z,27.30
2023-07-19T08:50:23.971Z,27.40
2023-07-19T08:52:52.311Z,27.40
2023-07-19T08:55:22.231Z,27.60
2023-07-19T08:57:50.301Z,27.70
2023-07-19T09:00:19.638Z,28.00
2023-07-19T09:02:48.152Z,28.00
2023-07-19T09:05:16.505Z,28.10
2023-07-19T09:07:48.966Z,27.90
2023-07-19T09:10:19.681Z,27.70
2023-07-19T09:12:49.492Z,27.50
2023-07-19T09:15:17.596Z,27.50
2023-07-19T09:17:49.024Z,27.40
2023-07-19T09:20:19.323Z,27.50
2023-07-19T09:22:47.671Z,27.80
2023-07-19T09:25:16.840Z,27.90
2023-07-19T09:27:45.665Z,28.00
2023-07-19T09:30:16.378Z,28.00
2023-07-19T09:32:44.753Z,27.90
2023-07-19T09:35:13.212Z,27.90
2023-07-19T09:37:42.114Z,28.00
2023-07-19T09:40:11.311Z,28.20
2023-07-19T09:42:42.836Z,28.50
2023-07-19T09:45:12.933Z,28.50
2023-07-19T09:47:43.676Z,28.40
2023-07-19T09:50:13.795Z,28.20
2023-07-19T09:52:44.206Z,28.20
2023-07-19T09:55:13.438Z,28.20
2023-07-19T09:57:45.872Z,27.90
2023-07-19T10:00:15.125Z,27.90
2023-07-19T10:02:44.751Z,27.80
2023-07-19T10:05:13.586Z,27.70
2023-07-19T10:07:50.778Z,27.60
2023-07-19T10:10:21.880Z,27.60
2023-07-19T10:12:51.539Z,27.70
2023-07-19T10:15:22.991Z,27.70
2023-07-19T10:18:01.300Z,27.90
2023-07-19T10:20:34.613Z,27.90
2023-07-19T10:25:49.759Z,28.10
2023-07-19T10:28:31.462Z,28.00
2023-07-19T10:31:10.149Z,27.90
2023-07-19T10:33:47.296Z,28.20
2023-07-19T10:36:15.636Z,28.20
2023-07-19T10:38:44.107Z,28.40
2023-07-19T10:41:13.669Z,28.60
2023-07-19T10:46:13.821Z,28.80
2023-07-19T10:48:43.564Z,28.80
2023-07-19T10:51:13.240Z,28.70
2023-07-19T10:53:46.097Z,28.80
2023-07-19T10:56:15.377Z,28.80
2023-07-19T10:58:43.676Z,28.70
2023-07-19T11:01:11.813Z,28.50
2023-07-19T11:03:43.699Z,28.50
2023-07-19T11:06:13.351Z,28.60
2023-07-19T11:08:41.391Z,28.60
2023-07-19T11:11:11.884Z,28.70
2023-07-19T11:13:39.914Z,28.80
2023-07-19T11:16:08.118Z,29.00
2023-07-19T11:18:39.173Z,29.20
2023-07-19T11:21:09.195Z,29.20
2023-07-19T11:23:42.930Z,28.90
2023-07-19T11:26:13.196Z,28.90
2023-07-19T11:28:45.642Z,28.70
2023-07-19T11:31:29.099Z,28.70
2023-07-19T11:34:01.603Z,28.50
2023-07-19T11:36:30.314Z,28.70
2023-07-19T11:39:00.217Z,28.90
2023-07-19T11:41:31.290Z,28.70
2023-07-19T11:43:59.294Z,28.70
2023-07-19T11:46:27.354Z,28.80
2023-07-19T11:48:55.360Z,28.90
2023-07-19T11:51:23.678Z,29.00
2023-07-19T11:53:51.873Z,29.20
2023-07-19T11:56:21.168Z,29.30
2023-07-19T11:58:49.318Z,29.30
2023-07-19T12:01:20.348Z,29.30
2023-07-19T12:03:48.680Z,29.40
2023-07-19T12:06:16.739Z,29.60
2023-07-19T12:08:45.339Z,29.70
2023-07-19T12:11:14.039Z,29.80
2023-07-19T12:13:43.357Z,29.80
2023-07-19T12:16:11.321Z,29.80
2023-07-19T12:18:40.200Z,29.80
2023-07-19T12:21:08.212Z,29.90
2023-07-19T12:23:40.710Z,29.80
2023-07-19T12:26:10.156Z,29.70
2023-07-19T12:28:38.690Z,29.50
2023-07-19T12:31:10.097Z,29.30
2023-07-19T12:33:40.387Z,29.20
2023-07-19T12:36:10.195Z,29.10
2023-07-19T12:38:38.387Z,29.20
2023-07-19T12:41:06.667Z,29.20
2023-07-19T12:43:34.681Z,29.30
2023-07-19T12:46:03.690Z,29.40
2023-07-19T12:48:35.113Z,29.30
2023-07-19T12:51:05.275Z,29.10
2023-07-19T12:53:34.230Z,29.00
2023-07-19T12:56:03.954Z,29.20
2023-07-19T12:58:32.586Z,29.50
2023-07-19T13:01:00.698Z,29.40
2023-07-19T13:03:29.908Z,29.20
2023-07-19T13:05:59.466Z,29.30
2023-07-19T13:08:28.447Z,29.50
2023-07-19T13:10:56.719Z,29.70
2023-07-19T13:13:24.874Z,29.70
2023-07-19T13:15:52.890Z,29.50
2023-07-19T13:18:20.968Z,29.60
2023-07-19T13:20:49.184Z,29.70
2023-07-19T13:23:18.978Z,29.60
2023-07-19T13:25:47.061Z,29.50
2023-07-19T13:28:16.311Z,29.40
2023-07-19T13:30:44.516Z,29.40
2023-07-19T13:33:12.551Z,29.50
2023-07-19T13:38:11.550Z,29.50
2023-07-19T13:40:41.109Z,29.70
2023-07-19T13:43:11.638Z,29.60
2023-07-19T13:45:39.995Z,29.60
2023-07-19T13:48:09.505Z,29.70
2023-07-19T13:50:37.944Z,29.90
2023-07-19T13:53:06.030Z,29.90
2023-07-19T13:55:34.931Z,29.90
2023-07-19T13:58:05.276Z,30.00
2023-07-19T14:00:33.920Z,29.90
2023-07-19T14:03:02.119Z,29.90
2023-07-19T14:05:30.241Z,29.70
2023-07-19T14:07:59.773Z,29.50
2023-07-19T14:10:29.158Z,29.40
2023-07-19T14:13:00.229Z,29.40
2023-07-19T14:15:30.201Z,29.40
2023-07-19T14:17:58.431Z,29.40
2023-07-19T14:20:26.657Z,29.30
2023-07-19T14:22:54.966Z,29.20
2023-07-19T14:25:23.296Z,29.30
2023-07-19T14:27:51.308Z,29.40
2023-07-19T14:30:19.485Z,29.40
2023-07-19T14:32:48.828Z,29.50
2023-07-19T14:35:17.172Z,29.60
2023-07-19T14:37:45.770Z,29.60
2023-07-19T14:40:15.420Z,29.60
2023-07-19T14:42:44.587Z,29.50
2023-07-19T14:45:12.858Z,29.60
2023-07-19T14:47:40.978Z,29.60
2023-07-19T14:50:11.370Z,29.60
2023-07-19T14:52:42.586Z,29.50
2023-07-19T14:55:11.487Z,29.50
2023-07-19T14:57:39.595Z,29.20
2023-07-19T15:00:13.856Z,29.00
2023-07-19T15:02:42.460Z,29.00
2023-07-19T15:05:12.183Z,28.90
2023-07-19T15:07:44.268Z,28.90
2023-07-19T15:10:15.066Z,28.90
2023-07-19T15:12:44.399Z,28.70
2023-07-19T15:15:13.547Z,28.80
2023-07-19T15:17:42.504Z,28.70
2023-07-19T15:20:12.854Z,28.70
2023-07-19T15:22:42.109Z,28.80
2023-07-19T15:25:12.597Z,28.60
2023-07-19T15:27:41.829Z,28.50
2023-07-19T15:30:10.293Z,28.40
2023-07-19T15:32:41.313Z,28.40
2023-07-19T15:35:12.605Z,28.50
2023-07-19T15:37:40.715Z,28.50
2023-07-19T15:40:12.667Z,28.50
2023-07-19T15:42:40.753Z,28.50
2023-07-19T15:45:09.580Z,28.50
2023-07-19T15:47:38.010Z,28.40
2023-07-19T15:50:07.041Z,28.30
2023-07-19T15:52:39.283Z,28.30
2023-07-19T15:55:08.321Z,28.30
2023-07-19T15:57:36.557Z,28.20
2023-07-19T16:00:06.209Z,28.20
2023-07-19T16:02:34.964Z,28.20
2023-07-19T16:05:03.026Z,28.20
2023-07-19T16:07:31.159Z,28.30
2023-07-19T16:10:00.910Z,28.30
2023-07-19T16:12:29.143Z,28.20
2023-07-19T16:14:57.141Z,28.20
2023-07-19T16:17:25.381Z,28.10
2023-07-19T16:19:55.443Z,28.20
2023-07-19T16:22:25.701Z,28.20
2023-07-19T16:24:53.942Z,28.20
2023-07-19T16:27:23.369Z,28.20
2023-07-19T16:29:51.404Z,28.10
2023-07-19T16:32:19.382Z,28.10
2023-07-19T16:34:50.856Z,28.00
2023-07-19T16:37:20.007Z,28.00
2023-07-19T16:39:47.969Z,27.90
2023-07-19T16:42:16.117Z,27.90
2023-07-19T16:44:45.443Z,27.90
2023-07-19T16:47:13.469Z,27.90
2023-07-19T16:49:41.517Z,27.90
2023-07-19T16:52:12.858Z,27.80
2023-07-19T16:54:41.893Z,27.80
2023-07-19T16:57:10.779Z,27.80
2023-07-19T16:59:38.852Z,27.80
2023-07-19T17:02:09.879Z,27.60
2023-07-19T17:04:37.851Z,27.50
2023-07-19T17:07:06.404Z,27.50
2023-07-19T17:09:34.367Z,27.50
2023-07-19T17:12:02.465Z,27.50
2023-07-19T17:14:30.582Z,27.50
2023-07-19T17:17:12.191Z,27.30
2023-07-19T17:19:42.934Z,27.30
2023-07-19T17:22:11.593Z,27.30
2023-07-19T17:24:39.765Z,27.20
2023-07-19T17:27:08.119Z,27.10
2023-07-19T17:29:36.293Z,27.10
2023-07-19T17:32:04.642Z,27.10
2023-07-19T17:34:32.847Z,27.00
2023-07-19T17:37:02.488Z,27.00
2023-07-19T17:39:30.634Z,27.00
2023-07-19T17:41:58.898Z,26.90
2023-07-19T17:44:26.925Z,26.80
2023-07-19T17:46:55.413Z,26.80
2023-07-19T17:49:24.344Z,26.80
2023-07-19T17:51:53.286Z,26.70
2023-07-19T17:54:22.864Z,26.60
2023-07-19T17:56:51.036Z,26.50
2023-07-19T17:59:19.298Z,26.50
2023-07-19T18:01:47.831Z,26.30
2023-07-19T18:04:16.031Z,26.40
2023-07-19T18:06:44.142Z,26.30
2023-07-19T18:09:12.301Z,26.30
2023-07-19T18:11:41.840Z,26.30
2023-07-19T18:14:09.899Z,26.30
2023-07-19T18:16:38.810Z,26.20
2023-07-19T18:19:07.443Z,26.20
2023-07-19T18:21:35.495Z,26.10
2023-07-19T18:24:03.653Z,26.00
2023-07-19T18:26:31.822Z,26.00
2023-07-19T18:29:01.483Z,26.10
2023-07-19T18:31:30.998Z,25.90
2023-07-19T18:33:59.201Z,25.80
2023-07-19T18:36:27.251Z,25.70
2023-07-19T18:38:55.931Z,25.70
2023-07-19T18:41:24.852Z,25.70
2023-07-19T18:43:52.973Z,25.60
2023-07-19T18:46:22.684Z,25.50
2023-07-19T18:48:50.985Z,25.40
2023-07-19T18:51:19.567Z,25.40
2023-07-19T18:53:48.846Z,25.40
2023-07-19T18:56:23.691Z,25.30
2023-07-19T18:58:52.126Z,25.30
2023-07-19T19:01:20.629Z,25.20
2023-07-19T19:03:50.847Z,25.20
2023-07-19T19:06:19.362Z,25.20
2023-07-19T19:08:47.546Z,25.10
2023-07-19T19:11:15.813Z,25.00
2023-07-19T19:13:43.756Z,24.90
2023-07-19T19:16:11.754Z,24.80
2023-07-19T19:18:39.853Z,24.80
2023-07-19T19:21:09.243Z,24.70
2023-07-19T19:23:40.254Z,24.60
2023-07-19T19:26:08.516Z,24.60
2023-07-19T19:28:39.761Z,24.60
2023-07-19T19:31:08.475Z,24.50
2023-07-19T19:33:36.496Z,24.40
2023-07-19T19:36:05.056Z,24.30
2023-07-19T19:38:34.765Z,24.20
2023-07-19T19:41:03.290Z,24.20
2023-07-19T19:43:31.400Z,24.10
2023-07-19T19:46:01.123Z,24.00
2023-07-19T19:48:29.266Z,24.00
2023-07-19T19:50:57.287Z,24.00
2023-07-19T19:53:26.990Z,23.80
2023-07-19T19:56:17.765Z,23.90
2023-07-19T19:58:47.358Z,23.80
2023-07-19T20:01:15.821Z,23.70
2023-07-19T20:03:43.852Z,23.70
2023-07-19T20:06:11.939Z,23.70
2023-07-19T20:08:42.496Z,23.60
2023-07-19T20:11:13.666Z,23.50
2023-07-19T20:13:42.678Z,23.60
2023-07-19T20:16:10.787Z,23.50
2023-07-19T20:21:09.904Z,23.40
2023-07-19T20:23:38.001Z,23.40
2023-07-19T20:26:14.196Z,23.30
2023-07-19T20:28:47.988Z,23.40
2023-07-19T20:34:33.800Z,23.00
2023-07-19T20:41:37.880Z,23.00
2023-07-19T20:44:07.458Z,22.90
2023-07-19T20:49:06.797Z,22.90
2023-07-19T20:51:35.450Z,22.80
2023-07-19T20:54:05.079Z,22.90
2023-07-19T20:56:33.150Z,22.80
2023-07-19T20:59:01.217Z,22.60
2023-07-19T21:01:30.694Z,22.60
2023-07-19T21:03:59.044Z,22.50
2023-07-19T21:06:27.298Z,22.50
2023-07-19T21:08:55.401Z,22.50
2023-07-19T21:11:23.883Z,22.40
2023-07-19T21:13:52.206Z,22.40
2023-07-19T21:16:20.229Z,22.30
2023-07-19T21:18:49.676Z,22.20
2023-07-19T21:21:17.722Z,22.10
2023-07-19T21:23:45.721Z,21.90
2023-07-19T21:26:15.500Z,21.90
2023-07-19T21:28:43.770Z,21.80
2023-07-19T21:31:11.968Z,21.90
2023-07-19T21:33:40.044Z,21.80
2023-07-19T21:36:09.482Z,21.80
2023-07-19T21:38:37.538Z,21.70
2023-07-19T21:41:05.496Z,21.70
2023-07-19T21:43:35.496Z,21.60
2023-07-19T21:46:05.301Z,21.70
2023-07-19T21:48:33.562Z,21.60
2023-07-19T21:51:01.612Z,21.60
2023-07-19T21:53:31.196Z,21.50
2023-07-19T21:55:59.204Z,21.40
2023-07-19T21:58:28.137Z,21.40
2023-07-19T22:00:56.824Z,21.40
2023-07-19T22:03:24.915Z,21.40
2023-07-19T22:05:52.974Z,21.30
2023-07-19T22:08:23.269Z,21.30
2023-07-19T22:10:52.814Z,21.20
2023-07-19T22:13:20.806Z,21.20
2023-07-19T22:15:48.777Z,21.20
2023-07-19T22:18:19.877Z,21.40
2023-07-19T22:20:49.149Z,21.00
2023-07-19T22:23:17.497Z,21.00
2023-07-19T22:25:46.200Z,20.90
2023-07-19T22:28:15.904Z,21.00
2023-07-19T22:30:45.014Z,20.90
2023-07-19T22:33:13.440Z,20.90
2023-07-19T22:35:41.721Z,20.90
2023-07-19T22:38:10.245Z,20.90
2023-07-19T22:40:39.419Z,21.00
2023-07-19T22:43:07.587Z,21.00
2023-07-19T22:45:36.970Z,21.00
2023-07-19T22:48:05.413Z,21.20
2023-07-19T22:50:33.413Z,21.00
2023-07-19T22:53:01.459Z,21.10
2023-07-19T22:55:29.430Z,21.20
2023-07-19T22:57:57.492Z,21.10
2023-07-19T23:00:25.911Z,21.00
2023-07-19T23:02:56.121Z,21.10
2023-07-19T23:05:24.235Z,21.20
2023-07-19T23:07:52.659Z,21.10
2023-07-19T23:10:20.853Z,21.10
2023-07-19T23:12:51.778Z,21.00
2023-07-19T23:15:20.066Z,21.00
2023-07-19T23:17:48.125Z,20.90
2023-07-19T23:20:17.594Z,20.80
2023-07-19T23:22:45.703Z,20.80
2023-07-19T23:25:14.453Z,20.80
2023-07-19T23:27:43.260Z,20.60
2023-07-19T23:30:12.291Z,20.50
2023-07-19T23:32:40.394Z,20.40
2023-07-19T23:35:09.406Z,20.40
2023-07-19T23:37:38.755Z,20.40
2023-07-19T23:40:10.052Z,20.40
2023-07-19T23:42:38.069Z,20.40
2023-07-19T23:45:07.412Z,20.40
2023-07-19T23:47:36.938Z,20.40
2023-07-19T23:50:05.262Z,20.60
2023-07-19T23:52:33.242Z,20.50
2023-07-19T23:55:04.012Z,20.50
2023-07-19T23:57:32.089Z,20.50
